createdAt,value
2023-03-04T00:01:37.514Z,97076.03
2023-03-04T00:04:05.779Z,97080.91
2023-03-04T00:06:35.166Z,97082.19
2023-03-04T00:09:04.660Z,97075.19
2023-03-04T00:11:33.546Z,97082.06
2023-03-04T00:14:01.987Z,97079.50
2023-03-04T00:16:30.080Z,97071.97
2023-03-04T00:18:58.695Z,97076.34
2023-03-04T00:21:26.958Z,97074.09
2023-03-04T00:23:56.433Z,97078.47
2023-03-04T00:26:24.748Z,97075.50
2023-03-04T00:28:52.748Z,97076.31
2023-03-04T00:31:20.818Z,97080.53
2023-03-04T00:33:49.261Z,97079.63
2023-03-04T00:36:17.434Z,97079.38
2023-03-04T00:38:45.470Z,97076.81
2023-03-04T00:41:14.866Z,97080.06
2023-03-04T00:43:43.050Z,97084.63
2023-03-04T00:46:11.125Z,97075.81
2023-03-04T00:48:39.547Z,97079.34
2023-03-04T00:51:07.572Z,97081.09
2023-03-04T00:53:35.912Z,97079.94
2023-03-04T00:56:04.766Z,97071.75
2023-03-04T00:58:34.351Z,97074.16
2023-03-04T01:01:02.528Z,97075.66
2023-03-04T01:03:32.555Z,97074.84
2023-03-04T01:06:01.170Z,97070.28
2023-03-04T01:08:29.468Z,97072.88
2023-03-04T01:10:57.557Z,97071.25
2023-03-04T01:13:25.784Z,97074.00
2023-03-04T01:15:56.108Z,97068.50
2023-03-04T01:18:24.315Z,97063.97
2023-03-04T01:20:54.642Z,97063.75
2023-03-04T01:23:23.278Z,97062.28
2023-03-04T01:25:51.418Z,97064.38
2023-03-04T01:28:20.372Z,97060.16
2023-03-04T01:30:49.665Z,97059.13
2023-03-04T01:33:19.504Z,97062.88
2023-03-04T01:35:47.961Z,97060.91
2023-03-04T01:38:16.041Z,97056.00
2023-03-04T01:40:44.150Z,97051.75
2023-03-04T01:43:28.193Z,97061.34
2023-03-04T01:45:58.659Z,97051.69
2023-03-04T01:48:31.281Z,97054.38
2023-03-04T01:51:02.904Z,97051.78
2023-03-04T01:53:34.156Z,97047.84
2023-03-04T01:56:11.054Z,97054.03
2023-03-04T01:58:39.199Z,97046.38
2023-03-04T02:01:07.216Z,97050.75
2023-03-04T02:03:36.651Z,97051.53
2023-03-04T02:06:05.233Z,97054.28
2023-03-04T02:08:33.462Z,97054.09
2023-03-04T02:11:01.460Z,97044.13
2023-03-04T02:13:29.570Z,97048.00
2023-03-04T02:15:57.738Z,97045.34
2023-03-04T02:18:26.052Z,97039.84
2023-03-04T02:21:05.969Z,97037.75
2023-03-04T02:23:43.237Z,97035.09
2023-03-04T02:26:18.711Z,97032.50
2023-03-04T02:28:52.405Z,97037.88
2023-03-04T02:31:27.120Z,97037.41
2023-03-04T02:34:00.457Z,97033.19
2023-03-04T02:36:30.044Z,97035.09
2023-03-04T02:39:04.941Z,97028.94
2023-03-04T02:41:34.755Z,97027.16
2023-03-04T02:44:02.899Z,97044.56
2023-03-04T02:46:31.262Z,97043.13
2023-03-04T02:48:59.415Z,97040.72
2023-03-04T02:51:28.729Z,97041.22
2023-03-04T02:53:56.935Z,97047.22
2023-03-04T02:56:25.017Z,97037.25
2023-03-04T02:58:54.444Z,97038.66
2023-03-04T03:01:22.907Z,97037.34
2023-03-04T03:03:51.155Z,97035.03
2023-03-04T03:06:20.360Z,97039.75
2023-03-04T03:08:48.429Z,97047.38
2023-03-04T03:11:17.454Z,97035.88
2023-03-04T03:13:46.608Z,97038.31
2023-03-04T03:16:16.849Z,97041.13
2023-03-04T03:18:44.946Z,97035.88
2023-03-04T03:21:12.991Z,97033.56
2023-03-04T03:23:41.378Z,97037.63
2023-03-04T03:26:09.734Z,97036.84
2023-03-04T03:28:37.971Z,97038.16
2023-03-04T03:31:06.402Z,97036.38
2023-03-04T03:33:35.830Z,97030.97
2023-03-04T03:36:04.178Z,97036.09
2023-03-04T03:38:32.293Z,97032.56
2023-03-04T03:41:00.513Z,97032.63
2023-03-04T03:43:28.595Z,97032.03
2023-03-04T03:45:56.650Z,97025.34
2023-03-04T03:48:24.705Z,97022.75
2023-03-04T03:50:54.586Z,97029.28
2023-03-04T03:53:22.591Z,97031.19
2023-03-04T03:55:50.677Z,97032.47
2023-03-04T03:58:18.692Z,97025.63
2023-03-04T04:00:46.694Z,97038.00
2023-03-04T04:03:16.415Z,97030.19
2023-03-04T04:05:44.468Z,97037.31
2023-03-04T04:08:15.450Z,97031.81
2023-03-04T04:10:44.208Z,97043.03
2023-03-04T04:13:12.931Z,97033.38
2023-03-04T04:15:41.058Z,97029.66
2023-03-04T04:18:09.215Z,97029.00
2023-03-04T04:20:37.654Z,97039.13
2023-03-04T04:23:06.412Z,97036.38
2023-03-04T04:25:35.768Z,97030.41
2023-03-04T04:28:04.047Z,97030.72
2023-03-04T04:30:32.154Z,97031.31
2023-03-04T04:33:01.826Z,97038.13
2023-03-04T04:35:29.905Z,97038.97
2023-03-04T04:37:58.138Z,97035.91
2023-03-04T04:40:26.324Z,97039.69
2023-03-04T04:42:55.882Z,97048.00
2023-03-04T04:45:24.714Z,97047.63
2023-03-04T04:47:53.235Z,97050.31
2023-03-04T04:50:21.561Z,97042.44
2023-03-04T04:52:49.612Z,97052.31
2023-03-04T04:55:17.990Z,97043.69
2023-03-04T04:57:46.048Z,97044.81
2023-03-04T05:00:18.971Z,97040.88
2023-03-04T05:02:47.367Z,97038.56
2023-03-04T05:05:15.476Z,97034.50
2023-03-04T05:07:43.484Z,97038.19
2023-03-04T05:10:12.708Z,97042.56
2023-03-04T05:12:40.968Z,97042.91
2023-03-04T05:15:17.068Z,97052.31
2023-03-04T05:17:45.121Z,97045.31
2023-03-04T05:20:13.820Z,97050.16
2023-03-04T05:22:41.985Z,97056.53
2023-03-04T05:25:11.157Z,97052.25
2023-03-04T05:27:39.155Z,97055.34
2023-03-04T05:30:09.385Z,97056.81
2023-03-04T05:32:38.860Z,97057.66
2023-03-04T05:35:08.105Z,97057.78
2023-03-04T05:37:36.347Z,97059.88
2023-03-04T05:40:06.193Z,97050.63
2023-03-04T05:42:34.215Z,97050.00
2023-03-04T05:45:02.584Z,97059.06
2023-03-04T05:47:30.800Z,97057.63
2023-03-04T05:50:00.159Z,97057.28
2023-03-04T05:52:28.377Z,97064.03
2023-03-04T05:54:56.694Z,97060.03
2023-03-04T05:57:24.754Z,97056.75
2023-03-04T05:59:52.869Z,97058.22
2023-03-04T06:02:20.922Z,97059.75
2023-03-04T06:04:49.284Z,97076.94
2023-03-04T06:07:18.740Z,97077.03
2023-03-04T06:09:46.869Z,97076.25
2023-03-04T06:12:14.995Z,97071.91
2023-03-04T06:14:43.144Z,97068.94
2023-03-04T06:17:11.162Z,97086.72
2023-03-04T06:19:39.290Z,97075.53
2023-03-04T06:22:07.277Z,97085.53
2023-03-04T06:24:36.941Z,97088.16
2023-03-04T06:27:05.224Z,97089.63
2023-03-04T06:29:33.620Z,97101.13
2023-03-04T06:32:01.888Z,97100.25
2023-03-04T06:34:29.914Z,97106.63
2023-03-04T06:36:58.218Z,97101.31
2023-03-04T06:39:26.230Z,97101.06
2023-03-04T06:41:55.517Z,97096.56
2023-03-04T06:44:23.647Z,97109.91
2023-03-04T06:46:51.801Z,97107.69
2023-03-04T06:49:19.877Z,97106.06
2023-03-04T06:51:47.951Z,97115.56
2023-03-04T06:54:16.088Z,97116.81
2023-03-04T06:56:44.181Z,97116.25
2023-03-04T06:59:13.755Z,97111.75
2023-03-04T07:01:41.896Z,97122.53
2023-03-04T07:04:09.968Z,97116.16
2023-03-04T07:06:38.012Z,97116.66
2023-03-04T07:09:06.065Z,97110.66
2023-03-04T07:11:34.130Z,97124.84
2023-03-04T07:14:02.148Z,97126.69
2023-03-04T07:16:31.664Z,97133.19
2023-03-04T07:19:25.072Z,97120.31
2023-03-04T07:21:53.416Z,97129.16
2023-03-04T07:24:21.833Z,97127.03
2023-03-04T07:26:49.820Z,97128.28
2023-03-04T07:29:18.834Z,97131.66
2023-03-04T07:31:48.625Z,97131.38
2023-03-04T07:34:16.873Z,97132.44
2023-03-04T07:36:46.212Z,97138.50
2023-03-04T07:39:14.451Z,97136.75
2023-03-04T07:41:42.786Z,97133.16
2023-03-04T07:44:13.444Z,97140.28
2023-03-04T07:46:42.214Z,97152.50
2023-03-04T07:49:14.132Z,97150.19
2023-03-04T07:51:42.285Z,97152.63
2023-03-04T07:54:11.209Z,97158.44
2023-03-04T07:56:39.493Z,97159.69
2023-03-04T07:59:07.652Z,97156.06
2023-03-04T08:01:38.602Z,97161.59
2023-03-04T08:04:08.638Z,97161.72
2023-03-04T08:06:38.106Z,97162.06
2023-03-04T08:09:08.871Z,97168.72
2023-03-04T08:11:39.185Z,97167.19
2023-03-04T08:14:09.162Z,97166.56
2023-03-04T08:16:37.344Z,97170.66
2023-03-04T08:19:06.761Z,97169.16
2023-03-04T08:21:35.321Z,97174.38
2023-03-04T08:24:08.687Z,97175.34
2023-03-04T08:26:41.794Z,97174.84
2023-03-04T08:29:13.150Z,97180.03
2023-03-04T08:31:41.657Z,97178.38
2023-03-04T08:34:11.444Z,97186.19
2023-03-04T08:36:40.145Z,97186.91
2023-03-04T08:39:10.246Z,97183.22
2023-03-04T08:41:38.334Z,97186.13
2023-03-04T08:44:10.244Z,97182.63
2023-03-04T08:46:39.441Z,97184.59
2023-03-04T08:49:07.861Z,97184.75
2023-03-04T08:51:36.824Z,97184.75
2023-03-04T08:54:05.673Z,97184.31
2023-03-04T08:56:35.163Z,97181.66
2023-03-04T08:59:05.019Z,97181.06
2023-03-04T09:01:33.290Z,97184.59
2023-03-04T09:04:02.056Z,97180.56
2023-03-04T09:06:30.304Z,97184.31
2023-03-04T09:08:58.424Z,97188.72
2023-03-04T09:11:26.621Z,97185.31
2023-03-04T09:13:55.952Z,97192.47
2023-03-04T09:16:24.520Z,97197.03
2023-03-04T09:18:52.894Z,97193.03
2023-03-04T09:21:21.089Z,97189.13
2023-03-04T09:23:49.131Z,97194.88
2023-03-04T09:26:22.641Z,97179.13
2023-03-04T09:28:57.799Z,97191.63
2023-03-04T09:31:27.435Z,97192.00
2023-03-04T09:33:57.919Z,97188.09
2023-03-04T09:36:26.980Z,97184.84
2023-03-04T09:38:55.464Z,97185.97
2023-03-04T09:41:29.122Z,97181.72
2023-03-04T09:43:59.063Z,97181.78
2023-03-04T09:46:36.593Z,97186.19
2023-03-04T09:49:07.262Z,97179.00
2023-03-04T09:51:49.754Z,97187.19
2023-03-04T09:54:31.330Z,97181.34
2023-03-04T09:57:17.224Z,97180.38
2023-03-04T09:59:53.093Z,97183.47
2023-03-04T10:02:29.909Z,97181.84
2023-03-04T10:05:05.317Z,97184.28
2023-03-04T10:07:38.923Z,97186.03
2023-03-04T10:10:14.302Z,97189.03
2023-03-04T10:12:46.748Z,97186.06
2023-03-04T10:15:33.204Z,97185.75
2023-03-04T10:18:13.784Z,97182.00
2023-03-04T10:20:54.716Z,97185.28
2023-03-04T10:23:26.973Z,97193.13
2023-03-04T10:25:55.995Z,97177.94
2023-03-04T10:28:28.486Z,97177.78
2023-03-04T10:31:05.806Z,97177.31
2023-03-04T10:33:36.290Z,97177.47
2023-03-04T10:36:07.675Z,97179.13
2023-03-04T10:38:39.870Z,97176.81
2023-03-04T10:41:15.896Z,97172.28
2023-03-04T10:43:46.573Z,97174.22
2023-03-04T10:46:17.267Z,97174.41
2023-03-04T10:48:46.093Z,97176.53
2023-03-04T10:51:21.410Z,97167.91
2023-03-04T10:53:52.640Z,97170.50
2023-03-04T10:56:36.131Z,97165.09
2023-03-04T10:59:45.985Z,97170.50
2023-03-04T11:02:29.070Z,97164.63
2023-03-04T11:05:17.561Z,97160.88
2023-03-04T11:07:55.667Z,97152.25
2023-03-04T11:10:30.049Z,97157.94
2023-03-04T11:13:10.292Z,97154.84
2023-03-04T11:15:52.504Z,97150.09
2023-03-04T11:18:30.632Z,97150.75
2023-03-04T11:21:00.801Z,97149.25
2023-03-04T11:23:40.652Z,97148.78
2023-03-04T11:26:15.637Z,97139.66
2023-03-04T11:28:50.654Z,97141.13
2023-03-04T11:31:24.618Z,97142.75
2023-03-04T11:34:01.797Z,97140.66
2023-03-04T11:36:36.934Z,97135.56
2023-03-04T11:39:14.866Z,97144.25
2023-03-04T11:41:51.429Z,97137.19
2023-03-04T11:44:19.610Z,97137.50
2023-03-04T11:47:04.401Z,97139.66
2023-03-04T11:49:56.023Z,97134.44
2023-03-04T11:52:39.035Z,97138.03
2023-03-04T12:02:31.871Z,97132.13
2023-03-04T12:13:49.163Z,97106.38
2023-03-04T12:16:34.739Z,97101.13
2023-03-04T12:19:45.756Z,97097.22
2023-03-04T12:22:35.190Z,97090.34
2023-03-04T12:25:45.557Z,97087.72
2023-03-04T12:28:52.341Z,97091.31
2023-03-04T12:31:39.164Z,97084.97
2023-03-04T12:34:36.676Z,97082.34
2023-03-04T12:37:43.220Z,97077.94
2023-03-04T12:40:44.976Z,97075.97
2023-03-04T12:43:32.488Z,97068.97
2023-03-04T12:46:16.732Z,97067.16
2023-03-04T12:48:57.599Z,97062.72
2023-03-04T12:51:33.835Z,97067.44
2023-03-04T12:54:21.874Z,97062.56
2023-03-04T12:56:55.545Z,97062.09
2023-03-04T12:59:27.666Z,97058.84
2023-03-04T13:02:10.012Z,97060.53
2023-03-04T13:04:52.536Z,97060.00
2023-03-04T13:07:35.176Z,97065.69
2023-03-04T13:10:11.819Z,97063.91
2023-03-04T13:12:59.499Z,97056.38
2023-03-04T13:15:34.944Z,97068.50
2023-03-04T13:18:27.451Z,97055.63
2023-03-04T13:21:18.910Z,97052.00
2023-03-04T13:23:46.948Z,97058.53
2023-03-04T13:26:30.922Z,97048.88
2023-03-04T13:29:34.881Z,97058.69
2023-03-04T13:32:05.945Z,97051.34
2023-03-04T13:34:51.759Z,97050.38
2023-03-04T13:37:35.182Z,97048.06
2023-03-04T13:40:36.583Z,97054.25
2023-03-04T13:43:28.292Z,97054.44
2023-03-04T13:45:57.058Z,97050.38
2023-03-04T13:48:31.476Z,97056.22
2023-03-04T13:51:00.580Z,97054.19
2023-03-04T13:53:45.132Z,97049.44
2023-03-04T13:56:32.440Z,97053.34
2023-03-04T13:59:32.047Z,97056.09
2023-03-04T14:02:05.777Z,97056.09
2023-03-04T14:04:36.757Z,97051.88
2023-03-04T14:07:24.643Z,97049.91
2023-03-04T14:09:59.248Z,97047.13
2023-03-04T14:12:30.636Z,97047.25
2023-03-04T14:15:02.514Z,97047.28
2023-03-04T14:17:35.140Z,97049.91
2023-03-04T14:20:05.360Z,97041.72
2023-03-04T14:22:38.544Z,97038.66
2023-03-04T14:25:20.518Z,97039.44
2023-03-04T14:27:51.455Z,97040.75
2023-03-04T14:30:40.913Z,97032.25
2023-03-04T14:33:25.206Z,97027.38
2023-03-04T14:35:56.856Z,97028.53
2023-03-04T14:38:30.707Z,97022.63
2023-03-04T14:41:02.642Z,97033.91
2023-03-04T14:43:37.101Z,97017.09
2023-03-04T14:46:14.057Z,97018.13
2023-03-04T14:48:50.070Z,97018.28
2023-03-04T14:51:39.079Z,97015.31
2023-03-04T14:54:07.477Z,97015.03
2023-03-04T14:56:37.166Z,97011.13
2023-03-04T14:59:05.226Z,97006.84
2023-03-04T15:01:37.427Z,97015.47
2023-03-04T15:04:09.095Z,97013.19
2023-03-04T15:06:40.602Z,97016.31
2023-03-04T15:09:20.064Z,97014.19
2023-03-04T15:11:51.557Z,97011.91
2023-03-04T15:14:45.699Z,97013.88
2023-03-04T15:17:29.986Z,97016.66
2023-03-04T15:20:04.338Z,97010.63
2023-03-04T15:22:32.652Z,97011.63
2023-03-04T15:25:02.931Z,97011.13
2023-03-04T15:27:32.152Z,97018.13
2023-03-04T15:30:02.158Z,97017.16
2023-03-04T15:32:32.165Z,97016.16
2023-03-04T15:35:00.617Z,97018.59
2023-03-04T15:37:31.341Z,97013.09
2023-03-04T15:39:59.843Z,97008.50
2023-03-04T15:42:29.010Z,97004.25
2023-03-04T15:44:57.038Z,96999.03
2023-03-04T15:47:25.652Z,97007.38
2023-03-04T15:49:55.063Z,97002.28
2023-03-04T15:52:25.675Z,96996.09
2023-03-04T15:54:53.800Z,96993.47
2023-03-04T15:57:28.593Z,96991.03
2023-03-04T15:59:56.620Z,96993.63
2023-03-04T16:02:27.637Z,96997.06
2023-03-04T16:04:57.013Z,96996.25
2023-03-04T16:07:29.903Z,96992.31
2023-03-04T16:10:02.470Z,96999.81
2023-03-04T16:12:31.028Z,97006.38
2023-03-04T16:14:59.120Z,97007.66
2023-03-04T16:17:27.287Z,97009.78
2023-03-04T16:19:56.637Z,97006.84
2023-03-04T16:22:30.216Z,96999.16
2023-03-04T16:24:58.389Z,97003.91
2023-03-04T16:27:26.507Z,97004.06
2023-03-04T16:29:54.600Z,96998.53
2023-03-04T16:32:24.566Z,97002.63
2023-03-04T16:34:52.779Z,96999.03
2023-03-04T16:37:22.334Z,97004.25
2023-03-04T16:39:50.544Z,97000.47
2023-03-04T16:42:21.997Z,96996.91
2023-03-04T16:44:51.379Z,96993.31
2023-03-04T16:47:19.600Z,97000.19
2023-03-04T16:49:49.827Z,96997.72
2023-03-04T16:52:26.669Z,96995.78
2023-03-04T16:54:54.756Z,96998.56
2023-03-04T16:57:23.012Z,96997.72
2023-03-04T16:59:52.260Z,97001.00
2023-03-04T17:02:22.729Z,97001.63
2023-03-04T17:04:52.317Z,97001.28
2023-03-04T17:07:20.380Z,97007.81
2023-03-04T17:09:50.464Z,96995.59
2023-03-04T17:12:18.637Z,97007.69
2023-03-04T17:14:46.753Z,97006.69
2023-03-04T17:17:17.464Z,97008.66
2023-03-04T17:19:46.781Z,97002.78
2023-03-04T17:22:14.861Z,97002.63
2023-03-04T17:24:42.862Z,97007.84
2023-03-04T17:27:12.927Z,97006.38
2023-03-04T17:29:41.209Z,97014.53
2023-03-04T17:32:09.430Z,97018.59
2023-03-04T17:34:37.529Z,97015.34
2023-03-04T17:37:05.944Z,97018.59
2023-03-04T17:39:34.004Z,97016.94
2023-03-04T17:42:02.064Z,97019.09
2023-03-04T17:44:31.592Z,97025.78
2023-03-04T17:47:00.438Z,97016.81
2023-03-04T17:49:28.667Z,97020.03
2023-03-04T17:51:56.650Z,97022.31
2023-03-04T17:54:24.663Z,97017.94
2023-03-04T17:56:52.672Z,97014.81
2023-03-04T17:59:20.934Z,97021.19
2023-03-04T18:01:53.965Z,97027.25
2023-03-04T18:04:22.733Z,97017.78
2023-03-04T18:06:50.732Z,97022.84
2023-03-04T18:09:18.732Z,97017.28
2023-03-04T18:11:46.964Z,97012.75
2023-03-04T18:14:15.783Z,97007.50
2023-03-04T18:16:44.028Z,97012.88
2023-03-04T18:19:13.369Z,97015.66
2023-03-04T18:21:41.411Z,97006.38
2023-03-04T18:24:09.699Z,97000.00
2023-03-04T18:26:37.717Z,96995.44
2023-03-04T18:29:06.454Z,96993.47
2023-03-04T18:31:35.277Z,96993.31
2023-03-04T18:34:04.778Z,96987.63
2023-03-04T18:36:34.690Z,96996.56
2023-03-04T18:39:05.186Z,96996.06
2023-03-04T18:41:33.670Z,96993.44
2023-03-04T18:44:01.967Z,96994.75
2023-03-04T18:46:35.490Z,96990.66
2023-03-04T18:49:08.641Z,96987.44
2023-03-04T18:51:38.017Z,96983.81
2023-03-04T18:54:06.702Z,96985.63
2023-03-04T18:56:42.040Z,96984.50
2023-03-04T18:59:14.820Z,96979.09
2023-03-04T19:01:43.237Z,96979.94
2023-03-04T19:04:12.094Z,96975.88
2023-03-04T19:06:41.896Z,96980.13
2023-03-04T19:09:10.075Z,96979.56
2023-03-04T19:11:38.298Z,96973.25
2023-03-04T19:14:06.852Z,96979.97
2023-03-04T19:16:36.071Z,96976.84
2023-03-04T19:19:04.218Z,96979.13
2023-03-04T19:21:32.587Z,96974.22
2023-03-04T19:24:01.918Z,96977.31
2023-03-04T19:26:29.926Z,96975.88
2023-03-04T19:28:58.519Z,96970.97
2023-03-04T19:31:27.123Z,96974.72
2023-03-04T19:33:55.147Z,96965.06
2023-03-04T19:36:23.226Z,96968.50
2023-03-04T19:38:51.254Z,96960.66
2023-03-04T19:41:20.643Z,96963.09
2023-03-04T19:43:52.947Z,96964.22
2023-03-04T19:46:21.713Z,96958.38
2023-03-04T19:48:50.174Z,96966.38
2023-03-04T19:51:20.759Z,96971.75
2023-03-04T19:53:50.642Z,96963.13
2023-03-04T19:56:20.805Z,96967.50
2023-03-04T19:58:49.700Z,96965.75
2023-03-04T20:01:25.427Z,96957.06
2023-03-04T20:03:53.417Z,96967.53
2023-03-04T20:06:23.688Z,96966.38
2023-03-04T20:08:52.022Z,96962.31
2023-03-04T20:11:21.394Z,96969.31
2023-03-04T20:13:49.439Z,96969.47
2023-03-04T20:16:17.908Z,96974.53
2023-03-04T20:18:45.986Z,96970.28
2023-03-04T20:21:14.438Z,96973.59
2023-03-04T20:23:42.477Z,96972.09
2023-03-04T20:26:11.919Z,96966.38
2023-03-04T20:28:52.958Z,96966.72
2023-03-04T20:31:24.484Z,96964.72
2023-03-04T20:33:54.841Z,96962.13
2023-03-04T20:36:26.975Z,96953.97
2023-03-04T20:39:02.105Z,96959.63
2023-03-04T20:41:31.715Z,96960.16
2023-03-04T20:44:01.182Z,96950.06
2023-03-04T20:46:34.531Z,96940.59
2023-03-04T20:49:06.156Z,96941.88
2023-03-04T20:51:35.230Z,96938.13
2023-03-04T20:54:04.694Z,96935.16
2023-03-04T20:56:34.559Z,96930.63
2023-03-04T20:59:08.623Z,96927.50
2023-03-04T21:01:38.319Z,96934.03
2023-03-04T21:04:07.416Z,96929.63
2023-03-04T21:06:36.197Z,96931.63
2023-03-04T21:09:08.304Z,96933.88
2023-03-04T21:11:40.220Z,96931.41
2023-03-04T21:14:15.290Z,96934.19
2023-03-04T21:16:43.836Z,96924.91
2023-03-04T21:19:17.547Z,96930.91
2023-03-04T21:21:46.833Z,96929.13
2023-03-04T21:24:17.530Z,96928.63
2023-03-04T21:26:47.692Z,96930.13
2023-03-04T21:29:19.059Z,96925.69
2023-03-04T21:31:51.162Z,96930.78
2023-03-04T21:34:22.571Z,96924.94
2023-03-04T21:36:50.605Z,96925.41
2023-03-04T21:39:21.889Z,96926.03
2023-03-04T21:41:50.079Z,96925.59
2023-03-04T21:44:28.172Z,96924.28
2023-03-04T21:46:58.011Z,96921.97
2023-03-04T21:49:26.449Z,96918.88
2023-03-04T21:51:54.532Z,96917.56
2023-03-04T21:54:22.666Z,96914.63
2023-03-04T21:56:51.032Z,96912.50
2023-03-04T21:59:20.446Z,96908.28
2023-03-04T22:01:48.445Z,96904.97
2023-03-04T22:04:16.565Z,96903.69
2023-03-04T22:06:44.598Z,96912.22
2023-03-04T22:09:13.144Z,96901.75
2023-03-04T22:11:41.254Z,96902.72
2023-03-04T22:14:09.434Z,96909.28
2023-03-04T22:16:54.025Z,96908.31
2023-03-04T22:19:23.251Z,96897.88
2023-03-04T22:21:52.162Z,96896.59
2023-03-04T22:24:21.271Z,96891.22
2023-03-04T22:26:49.514Z,96889.38
2023-03-04T22:29:17.717Z,96896.44
2023-03-04T22:31:47.655Z,96891.16
2023-03-04T22:34:16.785Z,96891.50
2023-03-04T22:36:47.188Z,96893.44
2023-03-04T22:39:19.475Z,96881.22
2023-03-04T22:41:47.866Z,96875.00
2023-03-04T22:44:16.715Z,96875.34
2023-03-04T22:46:46.063Z,96877.13
2023-03-04T22:49:15.208Z,96866.34
2023-03-04T22:51:45.508Z,96874.47
2023-03-04T22:54:15.374Z,96871.69
2023-03-04T22:56:44.037Z,96870.13
2023-03-04T22:59:14.734Z,96871.06
2023-03-04T23:01:42.816Z,96869.63
2023-03-04T23:04:16.401Z,96864.09
2023-03-04T23:06:44.589Z,96861.97
2023-03-04T23:09:12.586Z,96859.06
2023-03-04T23:11:41.260Z,96865.44
2023-03-04T23:14:11.785Z,96863.00
2023-03-04T23:16:44.101Z,96859.22
2023-03-04T23:19:15.410Z,96864.09
2023-03-04T23:21:45.568Z,96859.88
2023-03-04T23:24:15.164Z,96859.47
2023-03-04T23:26:45.116Z,96860.00
2023-03-04T23:29:17.375Z,96865.50
2023-03-04T23:31:45.485Z,96862.44
2023-03-04T23:34:14.656Z,96872.09
2023-03-04T23:36:44.430Z,96864.94
2023-03-04T23:39:14.158Z,96859.34
2023-03-04T23:41:42.381Z,96861.78
2023-03-04T23:44:12.936Z,96862.28
2023-03-04T23:46:41.370Z,96859.66
2023-03-04T23:49:13.052Z,96865.06
2023-03-04T23:51:44.168Z,96864.53
2023-03-04T23:54:15.433Z,96859.84
2023-03-04T23:56:43.671Z,96850.34
2023-03-04T23:59:12.867Z,96851.84
